createdAt,value
2018-05-09T00:00:42.798Z,15.36
2018-05-09T00:01:43.028Z,15.33
2018-05-09T00:02:43.261Z,15.22
2018-05-09T00:03:43.486Z,15.27
2018-05-09T00:04:43.719Z,15.35
2018-05-09T00:05:43.949Z,15.28
2018-05-09T00:06:44.183Z,15.36
2018-05-09T00:07:44.410Z,15.21
2018-05-09T00:08:44.642Z,15.22
2018-05-09T00:09:44.872Z,15.28
2018-05-09T00:10:45.104Z,15.31
2018-05-09T00:11:45.332Z,15.31
2018-05-09T00:12:45.560Z,15.24
2018-05-09T00:13:45.794Z,15.25
2018-05-09T00:14:46.024Z,15.25
2018-05-09T00:15:46.251Z,15.25
2018-05-09T00:16:46.481Z,15.21
2018-05-09T00:17:46.709Z,15.21
2018-05-09T00:18:46.940Z,15.17
2018-05-09T00:19:47.171Z,15.21
2018-05-09T00:20:47.402Z,15.06
2018-05-09T00:21:47.628Z,15.03
2018-05-09T00:22:47.859Z,15.07
2018-05-09T00:23:48.090Z,15.09
2018-05-09T00:24:48.322Z,15.04
2018-05-09T00:25:48.550Z,15.04
2018-05-09T00:26:48.778Z,15.03
2018-05-09T00:27:49.017Z,14.99
2018-05-09T00:28:49.246Z,15.06
2018-05-09T00:29:49.474Z,15.14
2018-05-09T00:30:49.700Z,15.03
2018-05-09T00:31:49.931Z,15.00
2018-05-09T00:32:50.165Z,15.06
2018-05-09T00:33:50.396Z,14.94
2018-05-09T00:34:50.624Z,14.88
2018-05-09T00:35:50.861Z,14.86
2018-05-09T00:36:51.090Z,14.91
2018-05-09T00:37:51.315Z,14.84
2018-05-09T00:38:51.544Z,14.96
2018-05-09T00:39:51.773Z,14.96
2018-05-09T00:40:52.004Z,14.81
2018-05-09T00:41:52.236Z,14.81
2018-05-09T00:42:52.467Z,14.84
2018-05-09T00:43:52.705Z,14.78
2018-05-09T00:44:52.933Z,14.84
2018-05-09T00:45:53.179Z,14.86
2018-05-09T00:46:53.397Z,14.69
2018-05-09T00:47:53.629Z,14.77
2018-05-09T00:48:53.856Z,14.65
2018-05-09T00:49:54.088Z,14.62
2018-05-09T00:50:54.317Z,14.66
2018-05-09T00:51:54.549Z,14.63
2018-05-09T00:52:54.790Z,14.60
2018-05-09T00:53:55.003Z,14.58
2018-05-09T00:54:55.223Z,14.48
2018-05-09T00:55:55.457Z,14.50
2018-05-09T00:56:55.682Z,14.59
2018-05-09T00:57:55.911Z,14.48
2018-05-09T00:58:56.152Z,14.55
2018-05-09T00:59:56.363Z,14.50
2018-05-09T01:00:56.592Z,14.48
2018-05-09T01:01:56.811Z,14.41
2018-05-09T01:02:57.054Z,14.44
2018-05-09T01:03:57.289Z,14.44
2018-05-09T01:04:57.507Z,14.41
2018-05-09T01:05:57.737Z,14.35
2018-05-09T01:06:57.967Z,14.37
2018-05-09T01:07:58.212Z,14.44
2018-05-09T01:08:58.447Z,14.44
2018-05-09T01:09:58.678Z,14.40
2018-05-09T01:10:58.903Z,14.44
2018-05-09T01:11:59.132Z,14.43
2018-05-09T01:12:59.365Z,14.44
2018-05-09T01:13:59.601Z,14.37
2018-05-09T01:14:59.834Z,14.23
2018-05-09T01:16:00.065Z,14.26
2018-05-09T01:17:00.281Z,14.36
2018-05-09T01:18:00.555Z,14.36
2018-05-09T01:19:00.749Z,14.33
2018-05-09T01:20:01.014Z,14.32
2018-05-09T01:21:01.191Z,14.40
2018-05-09T01:22:01.425Z,14.33
2018-05-09T01:23:01.648Z,14.29
2018-05-09T01:24:01.872Z,14.28
2018-05-09T01:25:02.102Z,14.32
2018-05-09T01:26:02.331Z,14.17
2018-05-09T01:27:02.559Z,14.22
2018-05-09T01:28:02.793Z,14.15
2018-05-09T01:29:03.009Z,14.26
2018-05-09T01:30:03.231Z,14.11
2018-05-09T01:31:03.469Z,14.11
2018-05-09T01:32:03.691Z,14.10
2018-05-09T01:33:03.936Z,14.07
2018-05-09T01:34:04.161Z,14.04
2018-05-09T01:35:04.382Z,14.11
2018-05-09T01:36:04.616Z,14.04
2018-05-09T01:37:04.845Z,14.04
2018-05-09T01:38:05.075Z,13.93
2018-05-09T01:39:05.309Z,14.07
2018-05-09T01:40:05.532Z,13.96
2018-05-09T01:41:05.757Z,13.92
2018-05-09T01:42:05.989Z,13.97
2018-05-09T01:43:06.221Z,13.96
2018-05-09T01:44:06.446Z,14.00
2018-05-09T01:45:06.677Z,13.95
2018-05-09T01:46:06.908Z,13.95
2018-05-09T01:47:07.133Z,13.96
2018-05-09T01:48:07.365Z,13.92
2018-05-09T01:49:07.602Z,13.92
2018-05-09T01:50:07.829Z,13.89
2018-05-09T01:51:08.056Z,13.93
2018-05-09T01:52:08.288Z,13.83
2018-05-09T01:53:08.517Z,13.92
2018-05-09T01:54:08.750Z,13.74
2018-05-09T01:55:08.977Z,13.78
2018-05-09T01:56:09.215Z,13.77
2018-05-09T01:57:09.434Z,13.81
2018-05-09T01:58:09.658Z,13.87
2018-05-09T01:59:09.898Z,13.79
2018-05-09T02:00:10.128Z,13.77
2018-05-09T02:01:10.358Z,13.79
2018-05-09T02:02:10.588Z,13.74
2018-05-09T02:03:10.816Z,13.78
2018-05-09T02:04:11.048Z,13.77
2018-05-09T02:05:11.276Z,13.77
2018-05-09T02:06:11.517Z,13.75
2018-05-09T02:07:11.732Z,13.74
2018-05-09T02:08:11.960Z,13.78
2018-05-09T02:09:12.189Z,13.71
2018-05-09T02:10:12.411Z,13.71
2018-05-09T02:11:12.642Z,13.74
2018-05-09T02:12:12.870Z,13.62
2018-05-09T02:13:13.104Z,13.70
2018-05-09T02:14:13.318Z,13.60
2018-05-09T02:15:13.550Z,13.68
2018-05-09T02:16:13.784Z,13.63
2018-05-09T02:17:14.011Z,13.53
2018-05-09T02:18:14.239Z,13.54
2018-05-09T02:19:14.466Z,13.65
2018-05-09T02:20:14.697Z,13.59
2018-05-09T02:21:14.931Z,13.46
2018-05-09T02:22:15.152Z,13.50
2018-05-09T02:23:15.474Z,13.62
2018-05-09T02:24:15.631Z,13.54
2018-05-09T02:25:15.849Z,13.53
2018-05-09T02:26:16.080Z,13.49
2018-05-09T02:27:16.307Z,13.47
2018-05-09T02:28:16.534Z,13.47
2018-05-09T02:29:16.765Z,13.53
2018-05-09T02:30:16.993Z,13.53
2018-05-09T02:31:17.280Z,13.46
2018-05-09T02:32:17.449Z,13.47
2018-05-09T02:33:17.682Z,13.38
2018-05-09T02:34:17.911Z,13.37
2018-05-09T02:35:18.139Z,13.44
2018-05-09T02:36:18.373Z,13.30
2018-05-09T02:37:18.596Z,13.31
2018-05-09T02:38:18.856Z,13.33
2018-05-09T02:39:19.053Z,13.31
2018-05-09T02:40:19.281Z,13.37
2018-05-09T02:41:19.508Z,13.31
2018-05-09T02:42:19.740Z,13.23
2018-05-09T02:43:19.970Z,13.33
2018-05-09T02:44:20.200Z,13.11
2018-05-09T02:45:20.423Z,13.09
2018-05-09T02:46:20.639Z,13.03
2018-05-09T02:47:20.869Z,13.08
2018-05-09T02:48:21.096Z,13.04
2018-05-09T02:49:21.326Z,13.01
2018-05-09T02:50:21.558Z,12.98
2018-05-09T02:51:21.784Z,12.91
2018-05-09T02:52:22.019Z,12.87
2018-05-09T02:53:22.251Z,12.87
2018-05-09T02:54:22.465Z,12.80
2018-05-09T02:55:22.699Z,12.85
2018-05-09T02:56:22.931Z,12.79
2018-05-09T02:57:23.157Z,12.78
2018-05-09T02:58:23.384Z,12.80
2018-05-09T02:59:23.610Z,12.72
2018-05-09T03:00:23.849Z,12.73
2018-05-09T03:01:24.068Z,12.78
2018-05-09T03:02:24.299Z,12.86
2018-05-09T03:03:24.531Z,12.79
2018-05-09T03:04:24.757Z,12.78
2018-05-09T03:05:24.994Z,12.86
2018-05-09T03:06:25.211Z,12.87
2018-05-09T03:07:25.452Z,12.87
2018-05-09T03:08:25.687Z,12.83
2018-05-09T03:09:25.908Z,12.82
2018-05-09T03:10:26.133Z,12.85
2018-05-09T03:11:26.356Z,12.90
2018-05-09T03:12:26.582Z,12.86
2018-05-09T03:13:26.807Z,12.87
2018-05-09T03:14:27.034Z,12.87
2018-05-09T03:15:27.265Z,12.78
2018-05-09T03:16:27.494Z,12.72
2018-05-09T03:17:27.726Z,12.82
2018-05-09T03:18:27.953Z,12.78
2018-05-09T03:19:28.181Z,12.75
2018-05-09T03:20:28.451Z,12.86
2018-05-09T03:21:28.647Z,12.86
2018-05-09T03:22:28.870Z,12.85
2018-05-09T03:23:29.103Z,12.93
2018-05-09T03:24:29.324Z,12.93
2018-05-09T03:25:29.559Z,12.86
2018-05-09T03:26:29.789Z,12.67
2018-05-09T03:27:30.016Z,12.67
2018-05-09T03:28:30.247Z,12.79
2018-05-09T03:29:30.472Z,12.72
2018-05-09T03:30:30.699Z,12.82
2018-05-09T03:31:30.928Z,12.70
2018-05-09T03:32:31.157Z,12.64
2018-05-09T03:33:31.396Z,12.62
2018-05-09T03:34:31.614Z,12.57
2018-05-09T03:35:31.852Z,12.57
2018-05-09T03:36:32.066Z,12.61
2018-05-09T03:37:32.328Z,12.65
2018-05-09T03:38:32.528Z,12.57
2018-05-09T03:39:32.764Z,12.62
2018-05-09T03:40:32.991Z,12.67
2018-05-09T03:41:33.220Z,12.68
2018-05-09T03:42:33.439Z,12.65
2018-05-09T03:43:33.671Z,12.70
2018-05-09T03:44:33.901Z,12.75
2018-05-09T03:45:34.131Z,12.72
2018-05-09T03:46:34.359Z,12.75
2018-05-09T03:47:34.591Z,12.75
2018-05-09T03:48:34.817Z,12.76
2018-05-09T03:49:35.045Z,12.76
2018-05-09T03:50:35.276Z,12.75
2018-05-09T03:51:35.507Z,12.64
2018-05-09T03:52:35.731Z,12.72
2018-05-09T03:53:35.962Z,12.76
2018-05-09T03:54:36.194Z,12.70
2018-05-09T03:55:36.426Z,12.75
2018-05-09T03:56:36.652Z,12.87
2018-05-09T03:57:36.880Z,12.72
2018-05-09T03:58:37.101Z,12.75
2018-05-09T03:59:37.335Z,12.83
2018-05-09T04:00:37.563Z,12.86
2018-05-09T04:01:37.798Z,12.82
2018-05-09T04:02:38.029Z,12.68
2018-05-09T04:03:38.258Z,12.90
2018-05-09T04:04:38.490Z,12.76
2018-05-09T04:05:38.721Z,12.91
2018-05-09T04:06:38.948Z,12.91
2018-05-09T04:07:39.177Z,12.91
2018-05-09T04:08:39.409Z,12.97
2018-05-09T04:09:39.641Z,13.22
2018-05-09T04:10:39.867Z,13.44
2018-05-09T04:11:40.094Z,13.57
2018-05-09T04:12:40.322Z,13.72
2018-05-09T04:13:40.551Z,13.93
2018-05-09T04:14:40.792Z,14.10
2018-05-09T04:15:41.011Z,14.25
2018-05-09T04:16:41.248Z,14.26
2018-05-09T04:17:41.475Z,14.45
2018-05-09T04:18:41.701Z,14.51
2018-05-09T04:19:41.931Z,14.62
2018-05-09T04:20:42.195Z,14.69
2018-05-09T04:21:42.397Z,14.70
2018-05-09T04:22:42.624Z,14.92
2018-05-09T04:23:42.851Z,14.88
2018-05-09T04:24:43.081Z,15.07
2018-05-09T04:25:43.314Z,15.22
2018-05-09T04:26:43.545Z,15.33
2018-05-09T04:27:43.776Z,15.33
2018-05-09T04:28:44.004Z,15.44
2018-05-09T04:29:44.232Z,15.67
2018-05-09T04:30:44.463Z,15.77
2018-05-09T04:31:44.691Z,15.94
2018-05-09T04:32:44.926Z,16.05
2018-05-09T04:33:45.161Z,16.29
2018-05-09T04:34:45.395Z,16.39
2018-05-09T04:35:45.623Z,16.39
2018-05-09T04:36:45.852Z,16.51
2018-05-09T04:37:46.098Z,16.43
2018-05-09T04:38:46.315Z,16.36
2018-05-09T04:39:46.545Z,16.53
2018-05-09T04:40:46.778Z,16.68
2018-05-09T04:41:47.016Z,16.68
2018-05-09T04:42:47.236Z,16.79
2018-05-09T04:43:47.465Z,16.99
2018-05-09T04:44:47.701Z,17.41
2018-05-09T04:45:47.931Z,17.68
2018-05-09T04:46:48.167Z,17.80
2018-05-09T04:47:48.393Z,18.10
2018-05-09T04:48:48.620Z,18.35
2018-05-09T04:49:48.853Z,18.47
2018-05-09T04:50:49.088Z,18.62
2018-05-09T04:51:49.320Z,18.96
2018-05-09T04:52:49.553Z,19.33
2018-05-09T04:53:49.787Z,19.51
2018-05-09T04:54:50.018Z,19.63
2018-05-09T04:55:50.258Z,19.79
2018-05-09T04:56:50.488Z,19.82
2018-05-09T04:57:50.721Z,19.73
2018-05-09T04:58:50.958Z,19.81
2018-05-09T04:59:51.187Z,19.84
2018-05-09T05:00:51.423Z,19.85
2018-05-09T05:01:51.659Z,20.26
2018-05-09T05:02:51.890Z,20.18
2018-05-09T05:03:52.121Z,20.37
2018-05-09T05:04:52.361Z,20.58
2018-05-09T05:05:52.592Z,20.81
2018-05-09T05:06:52.825Z,20.84
2018-05-09T05:07:53.061Z,21.07
2018-05-09T05:08:53.296Z,21.35
2018-05-09T05:09:53.533Z,21.55
2018-05-09T05:10:53.766Z,21.58
2018-05-09T05:11:54.000Z,21.93
2018-05-09T05:12:54.242Z,21.88
2018-05-09T05:13:54.473Z,21.91
2018-05-09T05:14:54.711Z,22.06
2018-05-09T05:15:54.947Z,22.13
2018-05-09T05:16:55.182Z,22.55
2018-05-09T05:17:55.421Z,22.65
2018-05-09T05:18:55.656Z,22.91
2018-05-09T05:19:55.894Z,22.65
2018-05-09T05:20:56.128Z,22.87
2018-05-09T05:21:56.368Z,22.78
2018-05-09T05:22:56.605Z,22.66
2018-05-09T05:23:56.840Z,22.51
2018-05-09T05:24:57.077Z,22.63
2018-05-09T05:25:57.312Z,22.76
2018-05-09T05:26:57.643Z,23.08
2018-05-09T05:27:57.786Z,23.08
2018-05-09T05:28:58.022Z,23.21
2018-05-09T05:29:58.267Z,23.32
2018-05-09T05:30:58.491Z,23.54
2018-05-09T05:31:58.725Z,23.37
2018-05-09T05:32:58.964Z,23.81
2018-05-09T05:33:59.200Z,23.87
2018-05-09T05:34:59.437Z,23.84
2018-05-09T05:35:59.673Z,24.23
2018-05-09T05:36:59.910Z,24.28
2018-05-09T05:38:00.149Z,24.57
2018-05-09T05:39:00.392Z,24.42
2018-05-09T05:40:00.635Z,24.47
2018-05-09T05:41:00.866Z,24.69
2018-05-09T05:42:01.104Z,24.35
2018-05-09T05:43:01.340Z,24.28
2018-05-09T05:44:01.574Z,24.63
2018-05-09T05:45:01.885Z,24.53
2018-05-09T05:46:02.048Z,24.14
2018-05-09T05:47:02.291Z,24.57
2018-05-09T05:48:02.524Z,25.01
2018-05-09T05:49:02.764Z,25.16
2018-05-09T05:50:03.019Z,24.42
2018-05-09T05:51:03.233Z,24.54
2018-05-09T05:52:03.474Z,24.66
2018-05-09T05:53:03.709Z,25.06
2018-05-09T05:54:03.945Z,24.98
2018-05-09T05:55:04.182Z,24.68
2018-05-09T05:56:04.433Z,24.47
2018-05-09T05:57:04.658Z,24.57
2018-05-09T05:58:04.899Z,25.17
2018-05-09T05:59:05.136Z,24.93
2018-05-09T06:00:05.374Z,25.35
2018-05-09T06:01:05.610Z,25.59
2018-05-09T06:02:05.849Z,25.95
2018-05-09T06:03:06.085Z,25.83
2018-05-09T06:04:06.327Z,26.07
2018-05-09T06:05:06.578Z,25.62
2018-05-09T06:06:06.807Z,25.62
2018-05-09T06:07:07.046Z,25.06
2018-05-09T06:08:07.288Z,25.36
2018-05-09T06:09:07.532Z,25.58
2018-05-09T06:10:07.760Z,25.83
2018-05-09T06:11:08.001Z,26.13
2018-05-09T06:12:08.240Z,26.07
2018-05-09T06:13:08.481Z,26.51
2018-05-09T06:14:08.723Z,26.78
2018-05-09T06:15:08.955Z,26.93
2018-05-09T06:16:09.195Z,26.45
2018-05-09T06:17:09.437Z,27.00
2018-05-09T06:18:09.677Z,27.20
2018-05-09T06:19:09.917Z,27.89
2018-05-09T06:20:10.157Z,27.85
2018-05-09T06:21:10.395Z,28.37
2018-05-09T06:22:10.631Z,28.59
2018-05-09T06:23:10.867Z,28.97
2018-05-09T06:24:11.133Z,29.38
2018-05-09T06:25:11.345Z,29.75
2018-05-09T06:26:11.582Z,29.57
2018-05-09T06:27:11.823Z,29.68
2018-05-09T06:28:12.064Z,28.86
2018-05-09T06:29:12.301Z,28.64
2018-05-09T06:30:12.539Z,28.56
2018-05-09T06:31:12.774Z,28.67
2018-05-09T06:32:13.013Z,28.74
2018-05-09T06:33:13.253Z,27.98
2018-05-09T06:34:13.490Z,28.07
2018-05-09T06:35:13.731Z,27.82
2018-05-09T06:36:14.047Z,27.71
2018-05-09T06:37:14.215Z,27.42
2018-05-09T06:38:14.451Z,27.35
2018-05-09T06:39:14.689Z,27.30
2018-05-09T06:40:14.930Z,27.70
2018-05-09T06:41:15.168Z,27.93
2018-05-09T06:42:15.404Z,27.36
2018-05-09T06:43:15.642Z,26.96
2018-05-09T06:44:15.885Z,26.78
2018-05-09T06:45:16.121Z,26.53
2018-05-09T06:46:16.363Z,26.29
2018-05-09T06:47:16.602Z,25.87
2018-05-09T06:48:16.842Z,25.98
2018-05-09T06:49:17.081Z,25.88
2018-05-09T06:50:17.318Z,25.59
2018-05-09T06:51:17.562Z,25.33
2018-05-09T06:52:17.800Z,25.22
2018-05-09T06:53:18.029Z,24.98
2018-05-09T06:54:18.263Z,24.60
2018-05-09T06:55:18.502Z,24.61
2018-05-09T06:56:18.739Z,24.68
2018-05-09T06:57:18.976Z,24.38
2018-05-09T06:58:19.212Z,24.32
2018-05-09T06:59:19.454Z,24.29
2018-05-09T07:00:19.701Z,24.47
2018-05-09T07:01:19.915Z,24.17
2018-05-09T07:02:20.163Z,23.80
2018-05-09T07:03:20.400Z,23.59
2018-05-09T07:04:20.640Z,23.59
2018-05-09T07:05:20.875Z,23.36
2018-05-09T07:06:21.169Z,23.27
2018-05-09T07:07:21.352Z,23.20
2018-05-09T07:08:21.589Z,23.09
2018-05-09T07:09:21.827Z,22.94
2018-05-09T07:10:22.067Z,22.93
2018-05-09T07:11:22.305Z,22.78
2018-05-09T07:12:22.540Z,22.66
2018-05-09T07:13:22.781Z,22.41
2018-05-09T07:14:23.013Z,22.17
2018-05-09T07:15:23.254Z,22.32
2018-05-09T07:16:23.486Z,22.38
2018-05-09T07:17:23.723Z,22.14
2018-05-09T07:18:23.960Z,22.28
2018-05-09T07:19:24.196Z,22.15
2018-05-09T07:20:24.439Z,21.88
2018-05-09T07:21:24.671Z,21.95
2018-05-09T07:22:24.899Z,21.73
2018-05-09T07:23:25.127Z,21.72
2018-05-09T07:24:25.367Z,21.93
2018-05-09T07:25:25.606Z,22.06
2018-05-09T07:26:25.844Z,22.04
2018-05-09T07:27:26.081Z,22.04
2018-05-09T07:28:26.316Z,22.07
2018-05-09T07:29:26.554Z,21.93
2018-05-09T07:30:26.785Z,21.91
2018-05-09T07:31:27.022Z,21.85
2018-05-09T07:32:27.258Z,21.75
2018-05-09T07:33:27.493Z,21.99
2018-05-09T07:34:27.729Z,22.18
2018-05-09T07:35:27.982Z,22.25
2018-05-09T07:36:28.200Z,22.35
2018-05-09T07:37:28.440Z,22.22
2018-05-09T07:38:28.672Z,22.36
2018-05-09T07:39:28.910Z,22.54
2018-05-09T07:40:29.146Z,22.68
2018-05-09T07:41:29.382Z,22.83
2018-05-09T07:42:29.617Z,22.80
2018-05-09T07:43:29.852Z,22.96
2018-05-09T07:44:30.088Z,22.99
2018-05-09T07:45:30.324Z,23.03
2018-05-09T07:46:30.562Z,22.85
2018-05-09T07:47:30.807Z,22.72
2018-05-09T07:48:31.033Z,22.65
2018-05-09T07:49:31.265Z,22.38
2018-05-09T07:50:31.501Z,22.28
2018-05-09T07:51:31.736Z,22.35
2018-05-09T07:52:31.972Z,22.48
2018-05-09T07:53:32.214Z,22.57
2018-05-09T07:54:32.445Z,22.57
2018-05-09T07:55:32.687Z,22.59
2018-05-09T07:56:32.912Z,22.72
2018-05-09T07:57:33.149Z,22.87
2018-05-09T07:58:33.401Z,22.91
2018-05-09T07:59:33.614Z,22.85
2018-05-09T08:00:33.850Z,23.12
2018-05-09T08:01:34.090Z,23.24
2018-05-09T08:02:34.341Z,23.24
2018-05-09T08:03:34.567Z,23.18
2018-05-09T08:04:34.795Z,23.39
2018-05-09T08:05:35.036Z,23.36
2018-05-09T08:06:35.275Z,23.41
2018-05-09T08:07:35.499Z,23.50
2018-05-09T08:08:35.726Z,23.55
2018-05-09T08:09:35.962Z,23.63
2018-05-09T08:10:36.263Z,23.71
2018-05-09T08:11:36.436Z,23.48
2018-05-09T08:12:36.658Z,23.58
2018-05-09T08:13:36.917Z,23.44
2018-05-09T08:14:37.182Z,23.65
2018-05-09T08:15:37.397Z,23.61
2018-05-09T08:16:37.631Z,23.47
2018-05-09T08:17:37.874Z,23.48
2018-05-09T08:18:38.111Z,23.43
2018-05-09T08:19:38.343Z,23.37
2018-05-09T08:20:38.591Z,23.43
2018-05-09T08:21:38.816Z,23.28
2018-05-09T08:22:39.055Z,23.32
2018-05-09T08:23:39.285Z,23.25
2018-05-09T08:24:39.527Z,23.55
2018-05-09T08:25:39.765Z,23.61
2018-05-09T08:26:40.005Z,23.50
2018-05-09T08:27:40.236Z,23.58
2018-05-09T08:28:40.470Z,23.74
2018-05-09T08:29:41.618Z,23.77
2018-05-09T08:30:40.978Z,23.76
2018-05-09T08:31:41.220Z,23.87
2018-05-09T08:32:41.453Z,23.86
2018-05-09T08:33:41.699Z,23.93
2018-05-09T08:34:41.933Z,23.93
2018-05-09T08:35:42.156Z,24.08
2018-05-09T08:36:42.486Z,24.11
2018-05-09T08:37:42.644Z,24.18
2018-05-09T08:38:42.892Z,24.13
2018-05-09T08:39:43.122Z,24.13
2018-05-09T08:40:43.357Z,24.16
2018-05-09T08:41:43.589Z,24.23
2018-05-09T08:42:43.830Z,24.24
2018-05-09T08:43:44.170Z,24.24
2018-05-09T08:44:44.299Z,24.39
2018-05-09T08:45:44.544Z,24.42
2018-05-09T08:46:44.779Z,24.47
2018-05-09T08:47:45.017Z,24.53
2018-05-09T08:48:45.255Z,24.55
2018-05-09T08:49:45.502Z,24.55
2018-05-09T08:50:45.728Z,24.60
2018-05-09T08:51:45.968Z,24.77
2018-05-09T08:52:46.198Z,24.77
2018-05-09T08:53:46.434Z,24.76
2018-05-09T08:54:46.652Z,24.76
2018-05-09T08:55:46.899Z,24.65
2018-05-09T08:56:47.136Z,24.60
2018-05-09T08:57:47.371Z,24.66
2018-05-09T08:58:47.611Z,24.68
2018-05-09T08:59:47.847Z,24.84
2018-05-09T09:00:48.084Z,24.81
2018-05-09T09:01:48.321Z,24.93
2018-05-09T09:02:48.560Z,24.92
2018-05-09T09:03:48.794Z,24.88
2018-05-09T09:04:49.030Z,24.84
2018-05-09T09:05:49.269Z,24.77
2018-05-09T09:06:49.504Z,24.68
2018-05-09T09:07:49.738Z,24.66
2018-05-09T09:08:49.981Z,24.63
2018-05-09T09:09:50.224Z,24.70
2018-05-09T09:10:50.500Z,24.69
2018-05-09T09:11:50.691Z,24.80
2018-05-09T09:12:50.919Z,24.77
2018-05-09T09:13:51.161Z,24.80
2018-05-09T09:14:51.394Z,24.81
2018-05-09T09:15:51.635Z,24.81
2018-05-09T09:16:51.871Z,24.68
2018-05-09T09:17:52.105Z,24.70
2018-05-09T09:18:52.341Z,24.54
2018-05-09T09:19:52.579Z,24.57
2018-05-09T09:20:52.865Z,24.47
2018-05-09T09:21:53.056Z,24.58
2018-05-09T09:22:53.288Z,24.36
2018-05-09T09:23:53.520Z,24.45
2018-05-09T09:24:53.749Z,24.47
2018-05-09T09:25:53.990Z,24.38
2018-05-09T09:26:54.222Z,24.36
2018-05-09T09:27:54.459Z,24.45
2018-05-09T09:28:54.698Z,24.35
2018-05-09T09:29:54.932Z,24.35
2018-05-09T09:30:55.169Z,24.36
2018-05-09T09:31:55.406Z,24.33
2018-05-09T09:32:55.646Z,24.39
2018-05-09T09:33:55.881Z,24.36
2018-05-09T09:34:56.124Z,24.24
2018-05-09T09:35:56.354Z,24.40
2018-05-09T09:36:56.591Z,24.40
2018-05-09T09:37:56.829Z,24.51
2018-05-09T09:38:57.067Z,24.39
2018-05-09T09:39:57.309Z,24.36
2018-05-09T09:40:57.535Z,24.50
2018-05-09T09:41:57.772Z,24.40
2018-05-09T09:42:58.013Z,24.29
2018-05-09T09:43:58.249Z,24.36
2018-05-09T09:44:58.487Z,24.36
2018-05-09T09:45:58.722Z,24.40
2018-05-09T09:46:58.963Z,24.42
2018-05-09T09:47:59.196Z,24.48
2018-05-09T09:48:59.436Z,24.48
2018-05-09T09:49:59.673Z,24.36
2018-05-09T09:50:59.907Z,24.21
2018-05-09T09:52:00.148Z,24.33
2018-05-09T09:53:00.381Z,24.35
2018-05-09T09:54:00.619Z,24.45
2018-05-09T09:55:00.857Z,24.70
2018-05-09T09:56:01.099Z,24.76
2018-05-09T09:57:01.336Z,24.63
2018-05-09T09:58:01.569Z,24.57
2018-05-09T09:59:01.809Z,24.61
2018-05-09T10:00:02.045Z,24.60
2018-05-09T10:01:02.282Z,24.58
2018-05-09T10:02:02.517Z,24.65
2018-05-09T10:03:02.753Z,24.50
2018-05-09T10:04:02.990Z,24.47
2018-05-09T10:05:03.225Z,24.39
2018-05-09T10:06:03.462Z,24.50
2018-05-09T10:07:03.700Z,24.65
2018-05-09T10:08:04.017Z,24.69
2018-05-09T10:09:04.171Z,24.68
2018-05-09T10:10:04.410Z,24.61
2018-05-09T10:11:04.653Z,24.61
2018-05-09T10:12:04.887Z,24.63
2018-05-09T10:13:05.122Z,24.58
2018-05-09T10:14:05.365Z,24.69
2018-05-09T10:15:05.596Z,24.80
2018-05-09T10:16:05.840Z,24.81
2018-05-09T10:17:06.066Z,24.77
2018-05-09T10:18:06.302Z,24.88
2018-05-09T10:19:06.546Z,24.99
2018-05-09T10:20:06.777Z,25.11
2018-05-09T10:21:07.017Z,24.95
2018-05-09T10:22:07.258Z,24.88
2018-05-09T10:23:07.557Z,24.99
2018-05-09T10:24:07.730Z,24.99
2018-05-09T10:25:07.967Z,24.98
2018-05-09T10:26:08.205Z,24.98
2018-05-09T10:27:08.440Z,25.01
2018-05-09T10:28:08.679Z,24.85
2018-05-09T10:29:08.918Z,24.96
2018-05-09T10:30:09.159Z,25.03
2018-05-09T10:31:09.398Z,24.95
2018-05-09T10:32:09.635Z,24.96
2018-05-09T10:33:09.876Z,24.85
2018-05-09T10:34:10.114Z,24.78
2018-05-09T10:35:10.354Z,24.93
2018-05-09T10:36:10.594Z,24.68
2018-05-09T10:37:10.830Z,24.78
2018-05-09T10:38:11.069Z,24.86
2018-05-09T10:39:11.309Z,24.86
2018-05-09T10:40:11.545Z,25.01
2018-05-09T10:41:11.781Z,25.03
2018-05-09T10:42:12.018Z,25.07
2018-05-09T10:43:12.260Z,25.04
2018-05-09T10:44:12.497Z,25.22
2018-05-09T10:45:12.727Z,25.26
2018-05-09T10:46:12.970Z,25.35
2018-05-09T10:47:13.201Z,25.23
2018-05-09T10:48:13.440Z,25.32
2018-05-09T10:49:13.677Z,25.11
2018-05-09T10:50:13.914Z,25.04
2018-05-09T10:51:14.149Z,24.91
2018-05-09T10:52:14.386Z,25.01
2018-05-09T10:53:14.621Z,24.93
2018-05-09T10:54:14.859Z,24.93
2018-05-09T10:55:15.101Z,24.99
2018-05-09T10:56:15.373Z,25.13
2018-05-09T10:57:15.571Z,25.23
2018-05-09T10:58:15.799Z,25.17
2018-05-09T10:59:16.033Z,25.14
2018-05-09T11:00:16.274Z,25.10
2018-05-09T11:01:16.508Z,25.21
2018-05-09T11:02:16.745Z,25.38
2018-05-09T11:03:16.981Z,25.41
2018-05-09T11:04:17.219Z,25.54
2018-05-09T11:05:17.457Z,25.70
2018-05-09T11:06:17.693Z,25.72
2018-05-09T11:07:17.924Z,25.83
2018-05-09T11:08:18.174Z,25.60
2018-05-09T11:09:18.410Z,25.62
2018-05-09T11:10:18.646Z,25.65
2018-05-09T11:11:18.885Z,25.68
2018-05-09T11:12:19.123Z,25.66
2018-05-09T11:13:19.364Z,25.72
2018-05-09T11:14:19.599Z,25.72
2018-05-09T11:15:19.837Z,25.66
2018-05-09T11:16:20.076Z,25.66
2018-05-09T11:17:20.313Z,25.77
2018-05-09T11:18:20.552Z,25.65
2018-05-09T11:19:20.789Z,25.72
2018-05-09T11:20:21.024Z,25.62
2018-05-09T11:21:21.261Z,25.78
2018-05-09T11:22:21.500Z,25.78
2018-05-09T11:23:21.733Z,25.87
2018-05-09T11:24:22.011Z,25.91
2018-05-09T11:25:22.206Z,25.91
2018-05-09T11:26:22.446Z,26.02
2018-05-09T11:27:22.685Z,26.09
2018-05-09T11:28:22.927Z,26.13
2018-05-09T11:29:23.162Z,25.96
2018-05-09T11:30:23.402Z,25.81
2018-05-09T11:31:23.645Z,25.63
2018-05-09T11:32:23.879Z,25.58
2018-05-09T11:33:24.115Z,25.72
2018-05-09T11:34:24.355Z,25.54
2018-05-09T11:35:24.595Z,25.31
2018-05-09T11:36:24.896Z,25.25
2018-05-09T11:37:25.089Z,25.28
2018-05-09T11:38:25.312Z,25.33
2018-05-09T11:39:25.584Z,25.33
2018-05-09T11:40:25.788Z,25.31
2018-05-09T11:41:26.021Z,25.46
2018-05-09T11:42:26.263Z,25.46
2018-05-09T11:43:26.499Z,25.54
2018-05-09T11:44:26.742Z,25.48
2018-05-09T11:45:26.975Z,25.66
2018-05-09T11:46:27.210Z,25.84
2018-05-09T11:47:27.449Z,25.98
2018-05-09T11:48:27.682Z,26.00
2018-05-09T11:49:27.923Z,26.10
2018-05-09T11:50:28.164Z,25.98
2018-05-09T11:51:28.398Z,26.06
2018-05-09T11:52:28.639Z,25.93
2018-05-09T11:53:28.879Z,25.93
2018-05-09T11:54:29.119Z,25.96
2018-05-09T11:55:29.359Z,25.87
2018-05-09T11:56:29.601Z,25.80
2018-05-09T11:57:29.839Z,25.87
2018-05-09T11:58:30.079Z,25.81
2018-05-09T11:59:30.312Z,25.58
2018-05-09T12:00:30.559Z,25.46
2018-05-09T12:01:30.789Z,25.53
2018-05-09T12:02:31.094Z,25.51
2018-05-09T12:03:31.270Z,25.48
2018-05-09T12:04:31.511Z,25.47
2018-05-09T12:05:31.750Z,25.35
2018-05-09T12:06:31.993Z,25.25
2018-05-09T12:07:32.228Z,25.31
2018-05-09T12:08:32.465Z,25.32
2018-05-09T12:09:32.699Z,25.44
2018-05-09T12:10:33.140Z,25.44
2018-05-09T12:11:33.180Z,25.44
2018-05-09T12:12:33.414Z,25.59
2018-05-09T12:13:33.651Z,25.85
2018-05-09T12:14:33.890Z,25.91
2018-05-09T12:15:34.123Z,25.96
2018-05-09T12:16:34.399Z,26.07
2018-05-09T12:17:34.598Z,26.09
2018-05-09T12:18:34.837Z,25.99
2018-05-09T12:19:35.073Z,25.99
2018-05-09T12:20:35.314Z,25.93
2018-05-09T12:21:35.551Z,25.99
2018-05-09T12:22:35.796Z,25.96
2018-05-09T12:23:36.031Z,25.83
2018-05-09T12:24:36.338Z,25.81
2018-05-09T12:25:36.511Z,25.80
2018-05-09T12:26:36.743Z,25.88
2018-05-09T12:27:36.982Z,25.98
2018-05-09T12:28:37.224Z,25.98
2018-05-09T12:29:37.464Z,26.06
2018-05-09T12:30:37.702Z,25.99
2018-05-09T12:31:37.941Z,26.13
2018-05-09T12:32:38.179Z,26.22
2018-05-09T12:33:38.417Z,26.23
2018-05-09T12:34:38.653Z,26.44
2018-05-09T12:35:38.914Z,26.51
2018-05-09T12:36:39.137Z,26.62
2018-05-09T12:37:39.381Z,26.71
2018-05-09T12:38:39.626Z,26.88
2018-05-09T12:39:39.862Z,27.10
2018-05-09T12:40:40.099Z,27.05
2018-05-09T12:41:40.340Z,27.33
2018-05-09T12:42:40.577Z,27.40
2018-05-09T12:43:40.812Z,27.45
2018-05-09T12:44:41.050Z,27.65
2018-05-09T12:45:41.284Z,27.64
2018-05-09T12:46:41.525Z,27.64
2018-05-09T12:47:41.766Z,27.64
2018-05-09T12:48:42.050Z,27.54
2018-05-09T12:49:42.242Z,27.40
2018-05-09T12:50:42.486Z,27.22
2018-05-09T12:51:42.724Z,27.12
2018-05-09T12:52:42.965Z,27.14
2018-05-09T12:53:43.205Z,26.88
2018-05-09T12:54:43.444Z,26.74
2018-05-09T12:55:43.681Z,26.58